FW0754 Los Mochis MX current weather conditions

sailwx.info

Wind from 090 at 3 knots gusting 6

Air temperature 22.2° C
Dewpoint 20.3° C

Last reported at 2020-May-31 11:58 UTC.
Time now 2020-May-31 12:29 UTC

Location: N 25°45' W 108°43'.
View on Google Maps.

See reports from other nearby stations

  
Tides and Currents Weather Stations Pressure Air Temp Water Temp Dewpoint Dewpoint Depression Visibility Wind Speed Wind Dir Waves Ship Positions
date/time (UTC)wind fromknots sea level pressurealtimeterstation pressurevisibilityair tempwater tempwave heightnotes
2020-May-31 12:08 090 5 gusting 6 22.2
2020-May-31 11:58 090 3 gusting 6 22.2
2020-May-31 11:48 090 4 gusting 6 22.2
2020-May-31 11:38 090 2 gusting 3 22.2
2020-May-31 11:28 090 2 gusting 3 22.2
2020-May-31 11:18 090 2 gusting 4 22.2
2020-May-31 11:08 067 1 gusting 2 22.2
2020-May-31 10:58 090 2 gusting 3 22.2
2020-May-31 10:48 090 1 gusting 2 22.8
2020-May-31 10:38 090 2 gusting 5 22.8
2020-May-31 10:28 090 3 gusting 3 22.8
2020-May-31 10:18 090 1 gusting 3 22.8
2020-May-31 10:08 090 2 gusting 3 22.8
2020-May-31 09:58 112 1 gusting 5 22.8
2020-May-31 09:48 090 2 gusting 3 23.3
2020-May-31 09:38 067 1 gusting 5 23.3
2020-May-31 09:28 090 2 gusting 3 22.8
2020-May-31 09:18 090 2 gusting 4 22.8
2020-May-31 09:08 090 2 gusting 3 22.8
2020-May-31 08:58 090 2 gusting 3 22.8
2020-May-31 08:48 090 2 gusting 5 22.8
2020-May-31 08:38 112 2 gusting 3 22.8
2020-May-31 08:28 112 1 gusting 2 22.8
2020-May-31 08:18 157 1 gusting 2 22.8
2020-May-31 08:08 112 0 gusting 1 22.8
2020-May-31 07:58 090 0 gusting 1 22.8
2020-May-31 07:48 090 0 gusting 1 22.8
2020-May-31 07:38 090 0 gusting 1 22.8
2020-May-31 07:28 090 2 gusting 3 22.8
2020-May-31 07:18 090 2 gusting 3 22.8
2020-May-31 07:08 067 1 gusting 2 23.3
2020-May-31 06:58 090 1 gusting 2 23.3
2020-May-31 06:48 112 2 gusting 3 23.9
2020-May-31 06:38 112 1 gusting 2 23.9
2020-May-31 06:28 090 1 gusting 3 23.9
2020-May-31 06:18 135 2 gusting 3 23.9
2020-May-31 06:08 112 2 gusting 5 24.4
2020-May-31 05:58 157 3 gusting 5 24.4
2020-May-31 05:48 135 2 gusting 5 24.4
2020-May-31 05:38 135 3 gusting 6 24.4
2020-May-31 05:28 112 3 gusting 6 24.4
2020-May-31 05:18 112 4 gusting 6 24.4
2020-May-31 05:08 135 4 gusting 6 24.4
2020-May-31 04:58 135 4 gusting 5 24.4
2020-May-31 04:48 135 4 gusting 6 24.4
2020-May-31 04:38 157 6 gusting 9 24.4
2020-May-31 04:28 157 6 gusting 8 24.4
2020-May-31 04:18 135 6 gusting 8 25.0
2020-May-31 04:08 135 3 gusting 6 25.0
2020-May-31 03:58 135 3 gusting 6 25.0
2020-May-31 03:48 135 3 gusting 6 25.0
2020-May-31 03:38 135 3 gusting 5 25.0
2020-May-31 03:28 157 5 gusting 6 25.0
2020-May-31 03:18 157 6 gusting 7 25.6
2020-May-31 03:08 157 5 gusting 6 25.6
2020-May-31 02:58 157 5 gusting 6 25.6
2020-May-31 02:48 157 4 gusting 6 25.6
2020-May-31 02:38 157 4 gusting 6 26.1
2020-May-31 02:28 157 6 gusting 7 26.1
2020-May-31 02:18 157 6 gusting 8 26.7
2020-May-31 02:08 157 5 gusting 7 26.7
2020-May-31 01:58 157 6 gusting 11 27.2
2020-May-31 01:48 157 6 gusting 7 27.2
2020-May-31 01:38 157 4 gusting 8 27.8
2020-May-31 01:28 157 6 gusting 10 28.3
2020-May-31 01:18 157 6 gusting 7 28.3
2020-May-31 01:08 157 7 gusting 9 28.9
2020-May-31 00:58 157 6 gusting 10 28.9
2020-May-31 00:48 157 4 gusting 5 29.4
2020-May-31 00:38 157 4 gusting 8 30.0
2020-May-31 00:28 180 3 gusting 5 30.0
2020-May-31 00:18 180 6 gusting 11 30.6
2020-May-31 00:08 225 4 gusting 7 30.6
2020-May-30 23:58 157 5 gusting 7 31.1
2020-May-30 23:48 157 6 gusting 8 31.1
2020-May-30 23:38 157 6 gusting 10 31.1
2020-May-30 23:28 157 6 gusting 9 31.7
2020-May-30 23:18 180 6 gusting 8 32.2
2020-May-30 23:08 202 5 gusting 6 32.8
2020-May-30 22:58 180 5 gusting 9 32.8
2020-May-30 22:48 202 5 gusting 9 33.3
2020-May-30 22:38 202 5 gusting 8 33.3
2020-May-30 22:28 202 5 gusting 7 33.3
2020-May-30 22:18 202 3 gusting 6 33.3
2020-May-30 22:08 225 3 gusting 6 33.3
2020-May-30 21:58 180 5 gusting 7 33.9
2020-May-30 21:48 202 4 gusting 6 33.9
2020-May-30 21:38 225 4 gusting 8 33.9
2020-May-30 21:28 225 4 gusting 7 33.9
2020-May-30 21:18 225 4 gusting 6 33.9
2020-May-30 21:08 225 4 gusting 6 33.9
2020-May-30 20:58 247 5 gusting 9 33.9
2020-May-30 20:48 180 4 gusting 6 33.9
2020-May-30 20:38 225 5 gusting 8 33.9
2020-May-30 20:28 157 6 gusting 9 33.9
2020-May-30 20:18 247 2 gusting 4 33.3
2020-May-30 20:08 225 5 gusting 6 33.9
2020-May-30 19:58 202 4 gusting 6 33.3
2020-May-30 19:48 270 1 gusting 3 32.8
2020-May-30 19:38 225 2 gusting 4 32.8
2020-May-30 19:28 202 3 gusting 6 32.8
2020-May-30 19:18 202 1 gusting 2 32.8
2020-May-30 19:08 135 1 gusting 5 32.2
2020-May-30 18:58 225 4 gusting 6 32.2
2020-May-30 18:48 225 1 gusting 4 31.7
2020-May-30 18:38 202 3 gusting 7 31.7
2020-May-30 18:28 202 2 gusting 4 31.7
2020-May-30 18:18 225 1 gusting 3 31.7
2020-May-30 18:08 157 2 gusting 4 31.7
2020-May-30 17:58 247 3 gusting 6 31.7
2020-May-30 17:48 270 2 gusting 6 31.1
2020-May-30 17:38 270 3 gusting 5 30.6
2020-May-30 17:28 225 2 gusting 5 31.1
2020-May-30 17:18 247 2 gusting 6 30.6
2020-May-30 17:08 225 3 gusting 5 30.6
2020-May-30 16:58 247 3 gusting 4 30.0
2020-May-30 16:48 29.4
2020-May-30 16:38 225 2 gusting 3 30.0
2020-May-30 16:28 180 3 gusting 5 30.0
2020-May-30 16:18 135 1 gusting 2 29.4
2020-May-30 16:08 135 2 gusting 4 29.4
2020-May-30 15:58 180 1 gusting 3 28.9
2020-May-30 15:48 135 5 gusting 6 28.3
2020-May-30 15:38 157 3 gusting 6 27.8
2020-May-30 15:28 157 3 gusting 5 27.8
2020-May-30 15:18 157 3 gusting 5 27.8
2020-May-30 15:08 157 5 gusting 6 27.2
2020-May-30 14:58 157 4 gusting 6 26.7
2020-May-30 14:48 157 4 gusting 6 26.7
2020-May-30 14:38 135 2 gusting 5 26.1
2020-May-30 14:28 112 3 gusting 6 25.6
2020-May-30 14:18 135 2 gusting 4 25.0
2020-May-30 14:08 090 4 gusting 6 25.0
2020-May-30 13:58 112 2 gusting 3 24.4
2020-May-30 13:48 090 2 gusting 2 24.4
2020-May-30 13:38 090 1 gusting 3 23.9
2020-May-30 13:28 090 2 gusting 3 23.3
2020-May-30 13:18 090 1 gusting 2 23.3
2020-May-30 13:08 067 1 gusting 3 22.8
2020-May-30 12:58 090 0 gusting 1 22.2
2020-May-30 12:48 090 1 gusting 2 22.2
2020-May-30 12:38 067 0 gusting 1 22.2
2020-May-30 12:28 067 1 gusting 2 22.2
2020-May-30 12:18 090 2 gusting 2 22.2
2020-May-30 12:08 090 1 gusting 2 22.2
2020-May-30 11:58 090 2 gusting 3 22.2
2020-May-30 11:48 090 1 gusting 2 22.2
2020-May-30 11:38 090 1 gusting 2 22.2
2020-May-30 11:28 067 0 gusting 0 22.8
2020-May-30 11:18 067 0 gusting 1 22.8
2020-May-30 11:08 067 1 gusting 2 22.8
2020-May-30 10:58 090 2 gusting 3 22.8
2020-May-30 10:48 090 2 gusting 4 22.8
2020-May-30 10:38 090 2 gusting 4 22.8
2020-May-30 10:28 090 2 gusting 3 22.8
2020-May-30 10:18 090 0 gusting 1 22.8
2020-May-30 10:08 090 0 gusting 0 22.8
2020-May-30 09:58 090 0 gusting 1 22.8
2020-May-30 09:48 090 2 gusting 3 22.8
2020-May-30 09:38 067 2 gusting 2 22.8
2020-May-30 09:28 090 1 gusting 2 23.3
2020-May-30 09:18 23.3
2020-May-30 09:08 112 0 gusting 1 23.3
2020-May-30 08:58 090 0 gusting 1 23.3
2020-May-30 08:48 112 0 gusting 1 23.3
2020-May-30 08:38 090 1 gusting 2 22.8
2020-May-30 08:28 090 2 gusting 2 23.3
2020-May-30 08:18 090 1 gusting 2 23.3
2020-May-30 08:08 090 2 gusting 3 23.3
2020-May-30 07:58 090 1 gusting 3 23.3
2020-May-30 07:48 090 2 gusting 3 23.3
2020-May-30 07:38 135 0 gusting 1 23.9
2020-May-30 07:28 157 1 gusting 2 23.9
2020-May-30 07:18 157 0 gusting 2 23.9
2020-May-30 07:08 23.9
2020-May-30 06:58 157 2 gusting 4 23.9
2020-May-30 06:48 112 0 gusting 1 23.9
2020-May-30 06:38 157 0 gusting 1 23.9
2020-May-30 06:28 157 0 gusting 0 24.4
2020-May-30 06:18 157 0 gusting 1 24.4
2020-May-30 06:08 23.9
2020-May-30 05:58 23.9
2020-May-30 05:48 180 0 gusting 0 23.9
2020-May-30 05:38 180 1 gusting 3 24.4
2020-May-30 05:28 180 1 gusting 2 24.4
2020-May-30 05:18 157 2 gusting 4 24.4
2020-May-30 05:08 157 1 gusting 3 25.0
2020-May-30 04:58 157 2 gusting 4 25.0
2020-May-30 04:48 135 2 gusting 3 25.0
2020-May-30 04:38 135 2 gusting 3 25.6
2020-May-30 04:28 157 2 gusting 4 25.6
2020-May-30 04:18 157 1 gusting 2 25.6
2020-May-30 04:08 112 1 gusting 2 25.6
2020-May-30 03:58 135 1 gusting 3 25.6
2020-May-30 03:48 112 0 gusting 1 25.6
2020-May-30 03:38 112 1 gusting 3 25.6
2020-May-30 03:28 157 0 gusting 1 25.6
2020-May-30 03:18 225 0 gusting 1 25.6
2020-May-30 03:08 247 0 gusting 1 25.6
2020-May-30 02:58 247 0 gusting 0 25.6
2020-May-30 02:48 247 0 gusting 0 26.1
2020-May-30 02:38 270 1 gusting 2 26.1
2020-May-30 02:28 247 2 gusting 3 26.1
2020-May-30 02:18 225 1 gusting 2 26.7
2020-May-30 02:08 225 1 gusting 2 27.2
2020-May-30 01:58 180 2 gusting 2 27.8
2020-May-30 01:48 157 2 gusting 4 27.8
2020-May-30 01:38 180 1 gusting 3 28.3
2020-May-30 01:28 157 4 gusting 5 28.3
2020-May-30 01:18 135 4 gusting 6 28.3
2020-May-30 01:08 157 4 gusting 6 28.9
2020-May-30 00:58 157 5 gusting 7 28.9
2020-May-30 00:48 157 4 gusting 6 28.9
2020-May-30 00:38 157 4 gusting 6 29.4
2020-May-30 00:28 202 5 gusting 8 29.4
2020-May-30 00:18 157 5 gusting 8 29.4
2020-May-30 00:08 225 3 gusting 5 30.0
2020-May-29 23:58 202 3 gusting 6 30.0
2020-May-29 23:48 180 4 gusting 7 30.0
2020-May-29 23:38 180 4 gusting 6 30.6
2020-May-29 23:28 180 3 gusting 6 30.6
2020-May-29 23:18 157 5 gusting 6 30.6
2020-May-29 23:08 202 4 gusting 8 31.1
2020-May-29 22:58 202 4 gusting 7 31.1
2020-May-29 22:48 135 5 gusting 9 31.1
2020-May-29 22:38 157 4 gusting 8 31.1
2020-May-29 22:28 157 6 gusting 8 31.1
2020-May-29 22:18 202 6 gusting 7 31.1
2020-May-29 22:08 157 7 gusting 10 31.7
2020-May-29 21:58 157 6 gusting 8 31.7
2020-May-29 21:48 202 4 gusting 8 31.7
2020-May-29 21:38 180 4 gusting 8 31.7
2020-May-29 21:28 225 4 gusting 6 31.7
2020-May-29 21:18 180 4 gusting 8 31.7
2020-May-29 21:08 225 5 gusting 7 31.7
2020-May-29 20:48 202 5 gusting 7 32.2
2020-May-29 20:38 225 4 gusting 6 32.2
2020-May-29 20:18 225 4 gusting 6 31.7
2020-May-29 20:08 180 5 gusting 7 31.7
2020-May-29 19:58 180 4 gusting 7 31.7
2020-May-29 19:48 180 2 gusting 6 31.7
2020-May-29 19:38 225 4 gusting 7 32.2
2020-May-29 19:28 180 3 gusting 6 31.7
2020-May-29 19:18 202 4 gusting 6 31.1
2020-May-29 19:08 157 3 gusting 6 31.7
2020-May-29 18:58 202 3 gusting 4 31.7
2020-May-29 18:48 225 4 gusting 6 31.7
2020-May-29 18:38 202 3 gusting 5 31.7
2020-May-29 18:28 157 2 gusting 6 31.1
2020-May-29 18:18 135 3 gusting 5 31.1
2020-May-29 18:08 180 4 gusting 6 31.1
2020-May-29 17:58 202 3 gusting 5 31.7
2020-May-29 17:48 180 3 gusting 6 31.1
2020-May-29 17:38 090 2 gusting 4 30.6
2020-May-29 17:28 180 4 gusting 6 30.0
2020-May-29 17:18 135 3 gusting 9 30.0
2020-May-29 17:08 157 4 gusting 6 30.0
2020-May-29 16:58 157 3 gusting 6 28.9
2020-May-29 16:48 157 3 gusting 6 28.9
2020-May-29 16:38 135 5 gusting 6 28.9
2020-May-29 16:28 157 5 gusting 6 28.3
2020-May-29 16:18 157 4 gusting 5 27.8
2020-May-29 16:08 157 3 gusting 5 27.8
2020-May-29 15:58 157 1 gusting 1 27.2
2020-May-29 15:48 27.2
2020-May-29 15:38 157 3 gusting 6 27.2
2020-May-29 15:28 157 3 gusting 6 26.7
2020-May-29 15:18 135 3 gusting 5 26.7
2020-May-29 15:08 112 3 gusting 6 26.7
2020-May-29 14:58 112 3 gusting 6 26.1
2020-May-29 14:48 135 3 gusting 6 25.6
2020-May-29 14:38 112 2 gusting 6 25.6
2020-May-29 14:28 112 4 gusting 6 25.0
2020-May-29 14:18 090 3 gusting 6 24.4
2020-May-29 14:08 090 4 gusting 6 23.9
2020-May-29 13:58 135 2 gusting 6 23.3
2020-May-29 13:48 112 2 gusting 3 22.8
2020-May-29 13:38 090 1 gusting 3 22.8
2020-May-29 13:28 112 2 gusting 3 22.2
2020-May-29 13:18 112 2 gusting 3 22.2
2020-May-29 13:08 090 3 gusting 5 21.7
2020-May-29 12:58 090 2 gusting 3 21.7
2020-May-29 12:48 090 3 gusting 5 21.7
2020-May-29 12:38 090 2 gusting 4 21.7
2020-May-29 12:28 090 3 gusting 5 21.7
2020-May-29 12:18 090 2 gusting 2 21.7
2020-May-29 12:08 090 1 gusting 2 21.7